createdAt,value
2022-07-31T00:00:08.541Z,4.50
2022-07-31T00:05:12.332Z,4.00
2022-07-31T00:10:11.149Z,3.83
2022-07-31T00:15:10.937Z,4.63
2022-07-31T00:20:09.863Z,3.75
2022-07-31T00:25:10.756Z,4.18
2022-07-31T00:30:09.456Z,4.38
2022-07-31T00:35:08.413Z,6.15
2022-07-31T00:40:07.512Z,5.00
2022-07-31T00:45:08.013Z,5.20
2022-07-31T00:50:07.183Z,5.53
2022-07-31T00:55:05.802Z,5.45
2022-07-31T01:00:04.586Z,5.30
2022-07-31T01:05:04.562Z,5.47
2022-07-31T01:10:05.541Z,6.07
2022-07-31T01:15:06.310Z,6.15
2022-07-31T01:20:08.296Z,6.97
2022-07-31T01:25:09.615Z,11.77
2022-07-31T01:30:15.728Z,5.55
2022-07-31T01:35:16.778Z,6.55
2022-07-31T01:40:16.562Z,6.55
2022-07-31T01:45:18.080Z,6.32
2022-07-31T01:50:42.157Z,7.40
2022-07-31T01:55:56.417Z,5.95
2022-07-31T02:00:58.513Z,6.65
2022-07-31T02:06:01.014Z,7.43
2022-07-31T02:11:02.174Z,8.07
2022-07-31T02:16:05.058Z,6.07
2022-07-31T02:21:04.772Z,10.05
2022-07-31T02:26:03.881Z,5.80
2022-07-31T02:31:02.801Z,6.13
2022-07-31T02:36:04.105Z,7.07
2022-07-31T02:41:04.998Z,6.00
2022-07-31T02:46:04.500Z,6.07
2022-07-31T02:51:05.076Z,6.55
2022-07-31T02:56:04.697Z,8.35
2022-07-31T03:01:07.795Z,6.65
2022-07-31T03:06:10.473Z,5.93
2022-07-31T03:11:09.872Z,6.22
2022-07-31T03:16:11.456Z,6.63
2022-07-31T03:21:12.284Z,6.05
2022-07-31T03:26:11.695Z,7.82
2022-07-31T03:31:10.587Z,6.70
2022-07-31T03:36:09.594Z,7.07
2022-07-31T03:41:09.409Z,7.28
2022-07-31T03:46:08.827Z,6.10
2022-07-31T03:51:07.687Z,6.75
2022-07-31T03:56:07.642Z,6.45
2022-07-31T04:01:10.564Z,7.10
2022-07-31T04:06:10.813Z,6.90
2022-07-31T04:11:09.165Z,5.88
2022-07-31T04:16:08.805Z,7.88
2022-07-31T04:21:07.068Z,6.45
2022-07-31T04:26:05.532Z,6.85
2022-07-31T04:31:10.228Z,8.07
2022-07-31T04:36:29.248Z,6.50
2022-07-31T04:41:30.232Z,7.60
2022-07-31T04:46:30.102Z,7.03
2022-07-31T04:51:28.737Z,6.70
2022-07-31T04:56:37.709Z,8.32
2022-07-31T05:01:38.483Z,7.82
2022-07-31T05:06:37.661Z,7.60
2022-07-31T05:11:36.761Z,7.45
2022-07-31T05:16:36.683Z,7.47
2022-07-31T05:21:46.054Z,7.03
2022-07-31T05:27:14.988Z,7.70
2022-07-31T05:32:14.370Z,9.40
2022-07-31T05:37:14.376Z,7.63
2022-07-31T05:42:12.677Z,8.52
2022-07-31T05:47:39.855Z,11.00
2022-07-31T05:52:42.781Z,10.07
2022-07-31T05:58:17.018Z,8.25
2022-07-31T06:03:16.629Z,8.57
2022-07-31T06:08:29.207Z,9.82
2022-07-31T06:13:30.231Z,9.02
2022-07-31T06:18:34.026Z,8.32
2022-07-31T06:23:34.183Z,10.32
2022-07-31T06:28:52.767Z,9.23
2022-07-31T06:33:51.426Z,9.70
2022-07-31T06:38:56.103Z,10.52
2022-07-31T06:44:12.860Z,11.57
2022-07-31T06:49:34.016Z,11.98
2022-07-31T06:54:33.819Z,12.10
2022-07-31T06:59:39.792Z,12.38
2022-07-31T07:05:04.527Z,15.05
2022-07-31T07:09:59.785Z,11.63
2022-07-31T07:15:21.205Z,12.90
2022-07-31T07:20:19.632Z,11.30
2022-07-31T07:25:20.574Z,10.88
2022-07-31T07:30:21.995Z,10.30
2022-07-31T07:35:22.056Z,12.75
2022-07-31T07:40:25.685Z,12.68
2022-07-31T07:45:24.417Z,13.10
2022-07-31T07:50:27.075Z,12.93
2022-07-31T07:55:48.803Z,12.70
2022-07-31T08:01:13.145Z,10.90
2022-07-31T08:06:12.573Z,11.60
2022-07-31T08:11:17.115Z,10.85
2022-07-31T08:16:27.976Z,9.40
2022-07-31T08:21:28.923Z,11.00
2022-07-31T08:26:49.656Z,14.27
2022-07-31T08:31:49.314Z,14.48
2022-07-31T08:37:57.613Z,13.13
2022-07-31T08:42:47.304Z,10.75
2022-07-31T08:47:48.057Z,13.45
2022-07-31T08:52:54.707Z,13.68
2022-07-31T08:58:21.173Z,15.90
2022-07-31T09:03:19.890Z,18.83
2022-07-31T09:08:25.774Z,15.30
2022-07-31T09:13:26.017Z,17.38
2022-07-31T09:18:25.372Z,15.80
2022-07-31T09:23:45.303Z,14.45
2022-07-31T09:28:46.074Z,16.77
2022-07-31T09:33:45.993Z,17.20
2022-07-31T09:38:47.528Z,16.42
2022-07-31T09:44:16.824Z,17.80
2022-07-31T09:49:16.171Z,17.65
2022-07-31T09:54:22.149Z,18.13
2022-07-31T09:59:44.167Z,17.85
2022-07-31T10:04:43.893Z,17.70
2022-07-31T10:09:45.742Z,17.50
2022-07-31T10:14:54.480Z,16.52
2022-07-31T10:19:55.435Z,14.45
2022-07-31T10:25:13.011Z,16.42
2022-07-31T10:30:14.013Z,15.15
2022-07-31T10:35:22.776Z,13.27
2022-07-31T10:40:43.925Z,14.07
2022-07-31T10:45:51.648Z,15.25
2022-07-31T10:51:10.436Z,13.57
2022-07-31T10:56:28.852Z,14.80
2022-07-31T11:01:53.181Z,14.80
2022-07-31T11:07:15.911Z,11.60
2022-07-31T11:12:29.325Z,13.40
2022-07-31T11:18:25.331Z,12.32
2022-07-31T11:23:29.870Z,12.25
2022-07-31T11:28:28.205Z,11.40
2022-07-31T11:33:31.701Z,11.77
2022-07-31T11:38:41.733Z,11.77
2022-07-31T11:43:44.644Z,11.23
2022-07-31T11:48:45.709Z,10.35
2022-07-31T11:53:44.176Z,8.40
2022-07-31T11:58:47.326Z,8.20
2022-07-31T12:03:47.627Z,10.15
2022-07-31T12:08:47.644Z,9.35
2022-07-31T12:13:46.801Z,11.32
2022-07-31T12:18:50.522Z,9.05
2022-07-31T12:23:49.712Z,7.88
2022-07-31T12:28:57.096Z,4.90
2022-07-31T12:33:56.808Z,4.63
2022-07-31T12:39:01.999Z,5.47
2022-07-31T12:44:10.041Z,4.53
2022-07-31T12:49:13.180Z,4.32
2022-07-31T12:54:11.559Z,3.92
2022-07-31T12:59:10.084Z,5.28
2022-07-31T13:04:18.700Z,3.20
2022-07-31T13:09:19.266Z,4.30
2022-07-31T13:14:17.632Z,3.90
2022-07-31T13:19:16.709Z,4.25
2022-07-31T13:24:14.965Z,10.70
2022-07-31T13:29:14.731Z,9.60
2022-07-31T13:34:13.096Z,5.43
2022-07-31T13:39:11.413Z,8.02
2022-07-31T13:44:10.042Z,9.32
2022-07-31T13:49:10.737Z,9.93
2022-07-31T13:54:09.118Z,6.13
2022-07-31T13:59:07.518Z,7.07
2022-07-31T14:04:06.069Z,7.88
2022-07-31T14:09:05.709Z,13.10
2022-07-31T14:14:03.985Z,8.23
2022-07-31T14:19:02.858Z,8.90
2022-07-31T14:24:01.172Z,9.25
2022-07-31T14:29:05.366Z,11.02
2022-07-31T14:34:05.357Z,7.25
2022-07-31T14:39:03.760Z,5.13
2022-07-31T14:44:03.541Z,10.07
2022-07-31T14:49:02.771Z,5.68
2022-07-31T14:54:01.492Z,5.45
2022-07-31T14:58:59.869Z,5.22
2022-07-31T15:03:59.735Z,4.78
2022-07-31T15:08:58.023Z,4.88
2022-07-31T15:13:56.416Z,3.00
2022-07-31T15:18:54.771Z,4.93
2022-07-31T15:23:54.505Z,2.40
2022-07-31T15:28:52.844Z,2.55
2022-07-31T15:33:51.341Z,4.65
2022-07-31T15:38:49.657Z,5.97
2022-07-31T15:43:49.352Z,4.57
2022-07-31T15:48:47.748Z,1.88
2022-07-31T15:53:46.054Z,4.85
2022-07-31T15:58:44.418Z,5.40
2022-07-31T16:03:50.325Z,2.47
2022-07-31T16:08:51.354Z,4.13
2022-07-31T16:13:49.636Z,3.60
2022-07-31T16:18:49.366Z,3.08
2022-07-31T16:23:47.668Z,2.72
2022-07-31T16:28:46.106Z,2.80
2022-07-31T16:33:50.623Z,5.47
2022-07-31T16:39:18.428Z,3.13
2022-07-31T16:44:09.232Z,4.25
2022-07-31T16:49:35.249Z,3.60
2022-07-31T16:54:27.247Z,3.70
2022-07-31T16:59:25.622Z,2.78
2022-07-31T17:04:23.977Z,3.10
2022-07-31T17:09:22.624Z,4.55
2022-07-31T17:14:23.132Z,3.17
2022-07-31T17:19:42.903Z,5.47
2022-07-31T17:24:41.129Z,5.95
2022-07-31T17:29:40.838Z,3.42
2022-07-31T17:34:39.133Z,5.60
2022-07-31T17:39:37.419Z,4.82
2022-07-31T17:44:35.741Z,4.32
2022-07-31T17:49:35.632Z,4.03
2022-07-31T17:54:34.174Z,4.00
2022-07-31T17:59:32.463Z,5.38
2022-07-31T18:04:31.513Z,3.70
2022-07-31T18:09:31.387Z,3.67
2022-07-31T18:14:29.707Z,6.53
2022-07-31T18:19:28.310Z,4.20
2022-07-31T18:24:26.627Z,6.57
2022-07-31T18:29:26.308Z,7.68
2022-07-31T18:34:24.607Z,4.57
2022-07-31T18:39:23.149Z,4.30
2022-07-31T18:44:22.240Z,4.43
2022-07-31T18:51:00.669Z,5.03
2022-07-31T18:54:40.400Z,4.65
2022-07-31T18:59:38.905Z,8.32
2022-07-31T19:04:38.597Z,6.13
2022-07-31T19:09:36.914Z,8.30
2022-07-31T19:14:35.204Z,5.63
2022-07-31T19:19:54.373Z,5.43
2022-07-31T19:24:53.570Z,5.80
2022-07-31T19:29:51.882Z,6.32
2022-07-31T19:34:50.266Z,6.72
2022-07-31T19:39:50.810Z,7.40
2022-07-31T19:44:50.489Z,7.43
2022-07-31T19:49:48.872Z,6.57
2022-07-31T19:54:47.211Z,5.18
2022-07-31T19:59:47.117Z,10.30
2022-07-31T20:04:46.744Z,6.50
2022-07-31T20:09:45.401Z,4.90
2022-07-31T20:14:43.664Z,7.22
2022-07-31T20:20:02.848Z,5.63
2022-07-31T20:25:02.763Z,5.07
2022-07-31T20:30:22.061Z,7.13
2022-07-31T20:35:32.954Z,4.53
2022-07-31T20:40:40.993Z,7.40
2022-07-31T20:45:50.897Z,14.95
2022-07-31T20:50:49.233Z,6.93
2022-07-31T20:55:50.077Z,4.22
2022-07-31T21:00:48.961Z,4.88
2022-07-31T21:05:47.508Z,5.15
2022-07-31T21:10:46.145Z,5.43
2022-07-31T21:15:45.930Z,6.50
2022-07-31T21:20:52.143Z,4.32
2022-07-31T21:25:51.766Z,7.18
2022-07-31T21:30:53.737Z,8.40
2022-07-31T21:35:52.354Z,3.88
2022-07-31T21:40:50.894Z,4.35
2022-07-31T21:45:54.969Z,5.18
2022-07-31T21:50:56.027Z,2.92
2022-07-31T21:55:54.380Z,3.10
2022-07-31T22:00:52.716Z,4.35
2022-07-31T22:06:08.624Z,3.75
2022-07-31T22:11:08.349Z,4.78
2022-07-31T22:16:06.761Z,12.90
2022-07-31T22:21:06.295Z,2.88
2022-07-31T22:26:04.805Z,4.07
2022-07-31T22:31:04.679Z,7.07
2022-07-31T22:36:07.208Z,4.30
2022-07-31T22:41:05.607Z,4.90
2022-07-31T22:46:05.321Z,2.25
2022-07-31T22:51:04.296Z,2.70
2022-07-31T22:56:02.589Z,1.60
2022-07-31T23:01:00.878Z,2.10
2022-07-31T23:06:13.151Z,2.55
2022-07-31T23:11:19.337Z,2.03
2022-07-31T23:16:17.676Z,4.53
2022-07-31T23:21:17.397Z,4.93
2022-07-31T23:26:15.688Z,2.97
2022-07-31T23:31:13.997Z,2.05
2022-07-31T23:36:12.632Z,2.90
2022-07-31T23:41:12.640Z,1.40
2022-07-31T23:46:10.890Z,1.95
2022-07-31T23:51:09.197Z,4.55
2022-07-31T23:56:18.452Z,2.45
